sensor_id;sensor_type;location;lat;lon;timestamp;P1;durP1;ratioP1;P2;durP2;ratioP2
11671;SDS011;5892;43.412;24.612;2023-03-01T00:01:09;26.53;;;17.73;;
11671;SDS011;5892;43.412;24.612;2023-03-01T00:03:37;24.53;;;17.80;;
11671;SDS011;5892;43.412;24.612;2023-03-01T00:06:05;22.17;;;16.47;;
11671;SDS011;5892;43.412;24.612;2023-03-01T00:08:32;26.70;;;17.53;;
11671;SDS011;5892;43.412;24.612;2023-03-01T00:11:00;22.17;;;15.50;;
11671;SDS011;5892;43.412;24.612;2023-03-01T00:13:28;24.77;;;16.27;;
11671;SDS011;5892;43.412;24.612;2023-03-01T00:15:56;23.83;;;17.07;;
11671;SDS011;5892;43.412;24.612;2023-03-01T00:18:23;22.63;;;16.67;;
11671;SDS011;5892;43.412;24.612;2023-03-01T00:20:50;25.00;;;18.23;;
11671;SDS011;5892;43.412;24.612;2023-03-01T00:23:17;26.97;;;18.33;;
11671;SDS011;5892;43.412;24.612;2023-03-01T00:25:44;25.23;;;17.03;;
11671;SDS011;5892;43.412;24.612;2023-03-01T00:28:11;26.40;;;18.63;;
11671;SDS011;5892;43.412;24.612;2023-03-01T00:30:38;27.67;;;19.20;;
11671;SDS011;5892;43.412;24.612;2023-03-01T00:33:06;30.60;;;19.80;;
11671;SDS011;5892;43.412;24.612;2023-03-01T00:35:33;28.83;;;19.40;;
11671;SDS011;5892;43.412;24.612;2023-03-01T00:38:01;23.03;;;17.10;;
11671;SDS011;5892;43.412;24.612;2023-03-01T00:40:28;21.73;;;16.27;;
11671;SDS011;5892;43.412;24.612;2023-03-01T00:42:56;23.47;;;16.53;;
11671;SDS011;5892;43.412;24.612;2023-03-01T00:45:23;23.93;;;16.27;;
11671;SDS011;5892;43.412;24.612;2023-03-01T00:47:51;24.87;;;17.27;;
11671;SDS011;5892;43.412;24.612;2023-03-01T00:50:19;27.10;;;18.90;;
11671;SDS011;5892;43.412;24.612;2023-03-01T00:52:47;25.53;;;17.47;;
11671;SDS011;5892;43.412;24.612;2023-03-01T00:55:32;25.03;;;17.23;;
11671;SDS011;5892;43.412;24.612;2023-03-01T00:57:58;25.33;;;17.30;;
11671;SDS011;5892;43.412;24.612;2023-03-01T01:00:34;26.33;;;17.77;;
11671;SDS011;5892;43.412;24.612;2023-03-01T01:03:29;24.97;;;17.70;;
11671;SDS011;5892;43.412;24.612;2023-03-01T01:05:58;26.57;;;18.17;;
11671;SDS011;5892;43.412;24.612;2023-03-01T01:08:30;24.13;;;17.77;;
11671;SDS011;5892;43.412;24.612;2023-03-01T01:10:56;22.80;;;16.00;;
11671;SDS011;5892;43.412;24.612;2023-03-01T01:13:23;23.80;;;17.23;;
11671;SDS011;5892;43.412;24.612;2023-03-01T01:15:50;24.73;;;17.13;;
11671;SDS011;5892;43.412;24.612;2023-03-01T01:18:17;28.33;;;18.00;;
11671;SDS011;5892;43.412;24.612;2023-03-01T01:20:44;22.50;;;15.40;;
11671;SDS011;5892;43.412;24.612;2023-03-01T01:23:12;23.10;;;16.17;;
11671;SDS011;5892;43.412;24.612;2023-03-01T01:25:39;20.83;;;15.00;;
11671;SDS011;5892;43.412;24.612;2023-03-01T01:28:08;19.47;;;15.03;;
11671;SDS011;5892;43.412;24.612;2023-03-01T01:30:35;21.50;;;14.83;;
11671;SDS011;5892;43.412;24.612;2023-03-01T01:33:02;20.40;;;14.53;;
11671;SDS011;5892;43.412;24.612;2023-03-01T01:35:29;22.27;;;14.67;;
11671;SDS011;5892;43.412;24.612;2023-03-01T01:37:56;21.57;;;15.33;;
11671;SDS011;5892;43.412;24.612;2023-03-01T01:40:32;19.43;;;14.20;;
11671;SDS011;5892;43.412;24.612;2023-03-01T01:42:59;19.13;;;14.07;;
11671;SDS011;5892;43.412;24.612;2023-03-01T01:45:30;19.97;;;14.80;;
11671;SDS011;5892;43.412;24.612;2023-03-01T01:48:00;18.93;;;13.97;;
11671;SDS011;5892;43.412;24.612;2023-03-01T01:50:31;18.43;;;14.07;;
11671;SDS011;5892;43.412;24.612;2023-03-01T01:53:04;19.93;;;14.20;;
11671;SDS011;5892;43.412;24.612;2023-03-01T01:55:34;18.53;;;13.20;;
11671;SDS011;5892;43.412;24.612;2023-03-01T01:58:04;18.00;;;14.03;;
11671;SDS011;5892;43.412;24.612;2023-03-01T02:00:33;20.27;;;14.37;;
11671;SDS011;5892;43.412;24.612;2023-03-01T02:03:01;18.90;;;13.80;;
11671;SDS011;5892;43.412;24.612;2023-03-01T02:05:33;19.67;;;14.07;;
11671;SDS011;5892;43.412;24.612;2023-03-01T02:08:05;18.87;;;14.20;;
11671;SDS011;5892;43.412;24.612;2023-03-01T02:10:34;20.10;;;14.03;;
11671;SDS011;5892;43.412;24.612;2023-03-01T02:13:02;19.57;;;13.87;;
11671;SDS011;5892;43.412;24.612;2023-03-01T02:15:31;19.10;;;13.70;;
11671;SDS011;5892;43.412;24.612;2023-03-01T02:17:59;16.83;;;12.30;;
11671;SDS011;5892;43.412;24.612;2023-03-01T02:20:29;18.77;;;13.43;;
11671;SDS011;5892;43.412;24.612;2023-03-01T02:23:01;17.43;;;13.70;;
11671;SDS011;5892;43.412;24.612;2023-03-01T02:25:35;20.07;;;14.47;;
11671;SDS011;5892;43.412;24.612;2023-03-01T02:28:08;21.80;;;17.43;;
11671;SDS011;5892;43.412;24.612;2023-03-01T02:30:46;18.23;;;13.37;;
11671;SDS011;5892;43.412;24.612;2023-03-01T02:33:29;17.90;;;12.83;;
11671;SDS011;5892;43.412;24.612;2023-03-01T02:36:02;18.10;;;13.47;;
11671;SDS011;5892;43.412;24.612;2023-03-01T02:38:32;19.17;;;13.60;;
11671;SDS011;5892;43.412;24.612;2023-03-01T02:40:59;18.13;;;13.27;;
11671;SDS011;5892;43.412;24.612;2023-03-01T02:43:30;19.67;;;13.37;;
11671;SDS011;5892;43.412;24.612;2023-03-01T02:46:03;18.83;;;13.80;;
11671;SDS011;5892;43.412;24.612;2023-03-01T02:48:39;18.70;;;13.47;;
11671;SDS011;5892;43.412;24.612;2023-03-01T02:51:11;19.27;;;14.13;;
11671;SDS011;5892;43.412;24.612;2023-03-01T02:53:52;18.43;;;13.57;;
11671;SDS011;5892;43.412;24.612;2023-03-01T02:56:25;19.50;;;13.57;;
11671;SDS011;5892;43.412;24.612;2023-03-01T02:58:54;20.70;;;14.47;;
11671;SDS011;5892;43.412;24.612;2023-03-01T03:01:26;18.43;;;13.37;;
11671;SDS011;5892;43.412;24.612;2023-03-01T03:04:01;19.40;;;13.27;;
11671;SDS011;5892;43.412;24.612;2023-03-01T03:06:29;17.63;;;12.90;;
11671;SDS011;5892;43.412;24.612;2023-03-01T03:08:56;18.77;;;13.57;;
11671;SDS011;5892;43.412;24.612;2023-03-01T03:11:23;19.63;;;13.00;;
11671;SDS011;5892;43.412;24.612;2023-03-01T03:13:50;18.17;;;12.57;;
11671;SDS011;5892;43.412;24.612;2023-03-01T03:16:18;17.97;;;12.93;;
11671;SDS011;5892;43.412;24.612;2023-03-01T03:18:54;16.80;;;12.50;;
11671;SDS011;5892;43.412;24.612;2023-03-01T03:21:29;18.43;;;13.27;;
11671;SDS011;5892;43.412;24.612;2023-03-01T03:23:57;17.10;;;12.50;;
11671;SDS011;5892;43.412;24.612;2023-03-01T03:26:24;18.20;;;13.60;;
11671;SDS011;5892;43.412;24.612;2023-03-01T03:28:51;19.40;;;14.17;;
11671;SDS011;5892;43.412;24.612;2023-03-01T03:31:19;20.33;;;14.43;;
11671;SDS011;5892;43.412;24.612;2023-03-01T03:33:46;20.63;;;14.50;;
11671;SDS011;5892;43.412;24.612;2023-03-01T03:36:15;19.67;;;14.37;;
11671;SDS011;5892;43.412;24.612;2023-03-01T03:38:43;17.67;;;13.53;;
11671;SDS011;5892;43.412;24.612;2023-03-01T03:41:10;19.33;;;14.37;;
11671;SDS011;5892;43.412;24.612;2023-03-01T03:43:39;22.63;;;15.07;;
11671;SDS011;5892;43.412;24.612;2023-03-01T03:46:08;20.33;;;15.13;;
11671;SDS011;5892;43.412;24.612;2023-03-01T03:48:37;20.00;;;15.30;;
11671;SDS011;5892;43.412;24.612;2023-03-01T03:51:05;18.20;;;13.43;;
11671;SDS011;5892;43.412;24.612;2023-03-01T03:53:33;18.60;;;14.20;;
11671;SDS011;5892;43.412;24.612;2023-03-01T03:56:00;18.23;;;13.97;;
11671;SDS011;5892;43.412;24.612;2023-03-01T03:58:27;19.27;;;14.50;;
11671;SDS011;5892;43.412;24.612;2023-03-01T04:00:54;19.43;;;14.17;;
11671;SDS011;5892;43.412;24.612;2023-03-01T04:03:23;20.83;;;14.80;;
11671;SDS011;5892;43.412;24.612;2023-03-01T04:05:53;19.33;;;14.93;;
11671;SDS011;5892;43.412;24.612;2023-03-01T04:08:20;18.60;;;14.00;;
11671;SDS011;5892;43.412;24.612;2023-03-01T04:10:49;20.43;;;14.63;;
11671;SDS011;5892;43.412;24.612;2023-03-01T04:13:18;19.33;;;14.47;;
11671;SDS011;5892;43.412;24.612;2023-03-01T04:15:46;17.93;;;14.20;;
11671;SDS011;5892;43.412;24.612;2023-03-01T04:18:16;19.90;;;14.90;;
11671;SDS011;5892;43.412;24.612;2023-03-01T04:20:44;19.73;;;14.47;;
11671;SDS011;5892;43.412;24.612;2023-03-01T04:23:14;20.37;;;14.80;;
11671;SDS011;5892;43.412;24.612;2023-03-01T04:25:45;19.70;;;15.33;;
11671;SDS011;5892;43.412;24.612;2023-03-01T04:28:18;22.30;;;17.97;;
11671;SDS011;5892;43.412;24.612;2023-03-01T04:30:46;18.67;;;14.97;;
11671;SDS011;5892;43.412;24.612;2023-03-01T04:33:13;18.63;;;14.50;;
11671;SDS011;5892;43.412;24.612;2023-03-01T04:35:39;20.53;;;14.80;;
11671;SDS011;5892;43.412;24.612;2023-03-01T04:38:06;17.70;;;14.17;;
11671;SDS011;5892;43.412;24.612;2023-03-01T04:40:35;20.50;;;15.57;;
11671;SDS011;5892;43.412;24.612;2023-03-01T04:43:03;19.20;;;14.93;;
11671;SDS011;5892;43.412;24.612;2023-03-01T04:45:31;19.03;;;14.97;;
11671;SDS011;5892;43.412;24.612;2023-03-01T04:48:00;19.53;;;15.10;;
11671;SDS011;5892;43.412;24.612;2023-03-01T04:50:27;19.93;;;15.13;;
11671;SDS011;5892;43.412;24.612;2023-03-01T04:52:54;21.20;;;15.33;;
11671;SDS011;5892;43.412;24.612;2023-03-01T04:55:24;18.00;;;13.97;;
11671;SDS011;5892;43.412;24.612;2023-03-01T04:57:53;18.83;;;15.10;;
11671;SDS011;5892;43.412;24.612;2023-03-01T05:00:20;19.63;;;14.80;;
11671;SDS011;5892;43.412;24.612;2023-03-01T05:02:48;20.33;;;14.97;;
11671;SDS011;5892;43.412;24.612;2023-03-01T05:05:22;20.40;;;15.33;;
11671;SDS011;5892;43.412;24.612;2023-03-01T05:07:53;20.07;;;15.00;;
11671;SDS011;5892;43.412;24.612;2023-03-01T05:10:21;19.83;;;15.03;;
11671;SDS011;5892;43.412;24.612;2023-03-01T05:12:49;20.67;;;15.67;;
11671;SDS011;5892;43.412;24.612;2023-03-01T05:15:18;20.10;;;15.70;;
11671;SDS011;5892;43.412;24.612;2023-03-01T05:17:46;21.03;;;14.73;;
11671;SDS011;5892;43.412;24.612;2023-03-01T05:20:14;19.93;;;14.93;;
11671;SDS011;5892;43.412;24.612;2023-03-01T05:22:41;19.80;;;15.43;;
11671;SDS011;5892;43.412;24.612;2023-03-01T05:25:08;19.60;;;15.47;;
11671;SDS011;5892;43.412;24.612;2023-03-01T05:27:36;20.50;;;15.80;;
11671;SDS011;5892;43.412;24.612;2023-03-01T05:30:03;20.30;;;15.40;;
11671;SDS011;5892;43.412;24.612;2023-03-01T05:32:40;21.90;;;15.43;;
11671;SDS011;5892;43.412;24.612;2023-03-01T05:35:09;20.40;;;15.70;;
11671;SDS011;5892;43.412;24.612;2023-03-01T05:37:38;22.07;;;16.60;;
11671;SDS011;5892;43.412;24.612;2023-03-01T05:40:08;23.77;;;16.57;;
11671;SDS011;5892;43.412;24.612;2023-03-01T05:42:41;21.07;;;15.90;;
11671;SDS011;5892;43.412;24.612;2023-03-01T05:45:09;24.53;;;16.97;;
11671;SDS011;5892;43.412;24.612;2023-03-01T05:47:38;21.40;;;15.77;;
11671;SDS011;5892;43.412;24.612;2023-03-01T05:50:10;23.40;;;16.70;;
11671;SDS011;5892;43.412;24.612;2023-03-01T05:52:38;21.60;;;16.67;;
11671;SDS011;5892;43.412;24.612;2023-03-01T05:55:05;23.73;;;17.17;;
11671;SDS011;5892;43.412;24.612;2023-03-01T05:57:33;21.87;;;16.60;;
11671;SDS011;5892;43.412;24.612;2023-03-01T06:00:00;25.90;;;17.30;;
11671;SDS011;5892;43.412;24.612;2023-03-01T06:02:27;25.17;;;17.93;;
11671;SDS011;5892;43.412;24.612;2023-03-01T06:04:55;24.70;;;17.73;;
11671;SDS011;5892;43.412;24.612;2023-03-01T06:07:22;28.90;;;21.30;;
11671;SDS011;5892;43.412;24.612;2023-03-01T06:09:49;29.17;;;22.97;;
11671;SDS011;5892;43.412;24.612;2023-03-01T06:12:16;26.57;;;18.07;;
11671;SDS011;5892;43.412;24.612;2023-03-01T06:14:44;22.57;;;16.93;;
11671;SDS011;5892;43.412;24.612;2023-03-01T06:17:12;25.13;;;18.37;;
11671;SDS011;5892;43.412;24.612;2023-03-01T06:19:39;27.00;;;19.73;;
11671;SDS011;5892;43.412;24.612;2023-03-01T06:22:07;26.17;;;18.77;;
11671;SDS011;5892;43.412;24.612;2023-03-01T06:24:34;29.13;;;20.90;;
11671;SDS011;5892;43.412;24.612;2023-03-01T06:27:01;26.50;;;18.63;;
11671;SDS011;5892;43.412;24.612;2023-03-01T06:29:28;26.57;;;18.33;;
11671;SDS011;5892;43.412;24.612;2023-03-01T06:31:55;28.70;;;19.40;;
11671;SDS011;5892;43.412;24.612;2023-03-01T06:34:22;26.67;;;18.97;;
11671;SDS011;5892;43.412;24.612;2023-03-01T06:36:49;29.00;;;19.07;;
11671;SDS011;5892;43.412;24.612;2023-03-01T06:39:17;29.20;;;19.70;;
11671;SDS011;5892;43.412;24.612;2023-03-01T06:41:44;28.13;;;18.73;;
11671;SDS011;5892;43.412;24.612;2023-03-01T06:44:11;29.83;;;20.40;;
11671;SDS011;5892;43.412;24.612;2023-03-01T06:46:38;27.87;;;20.43;;
11671;SDS011;5892;43.412;24.612;2023-03-01T06:49:05;30.03;;;20.70;;
11671;SDS011;5892;43.412;24.612;2023-03-01T06:51:34;29.33;;;19.63;;
11671;SDS011;5892;43.412;24.612;2023-03-01T06:54:02;31.03;;;20.90;;
11671;SDS011;5892;43.412;24.612;2023-03-01T06:56:30;29.63;;;21.17;;
11671;SDS011;5892;43.412;24.612;2023-03-01T06:58:59;30.57;;;20.40;;
11671;SDS011;5892;43.412;24.612;2023-03-01T07:01:25;25.63;;;18.73;;
11671;SDS011;5892;43.412;24.612;2023-03-01T07:03:52;27.80;;;17.67;;
11671;SDS011;5892;43.412;24.612;2023-03-01T07:06:19;26.43;;;17.60;;
11671;SDS011;5892;43.412;24.612;2023-03-01T07:08:46;26.23;;;18.83;;
11671;SDS011;5892;43.412;24.612;2023-03-01T07:11:13;26.17;;;18.13;;
11671;SDS011;5892;43.412;24.612;2023-03-01T07:13:42;27.00;;;18.30;;
11671;SDS011;5892;43.412;24.612;2023-03-01T07:16:09;27.83;;;17.63;;
11671;SDS011;5892;43.412;24.612;2023-03-01T07:18:36;26.63;;;18.10;;
11671;SDS011;5892;43.412;24.612;2023-03-01T07:21:06;27.17;;;18.93;;
11671;SDS011;5892;43.412;24.612;2023-03-01T07:23:33;28.90;;;19.87;;
11671;SDS011;5892;43.412;24.612;2023-03-01T07:26:01;40.57;;;25.43;;
11671;SDS011;5892;43.412;24.612;2023-03-01T07:28:33;26.33;;;18.93;;
11671;SDS011;5892;43.412;24.612;2023-03-01T07:31:05;30.17;;;20.57;;
11671;SDS011;5892;43.412;24.612;2023-03-01T07:33:32;25.93;;;18.27;;
11671;SDS011;5892;43.412;24.612;2023-03-01T07:36:00;28.07;;;19.70;;
11671;SDS011;5892;43.412;24.612;2023-03-01T07:38:29;25.73;;;17.33;;
11671;SDS011;5892;43.412;24.612;2023-03-01T07:40:57;28.23;;;18.13;;
11671;SDS011;5892;43.412;24.612;2023-03-01T07:43:25;23.77;;;17.47;;
11671;SDS011;5892;43.412;24.612;2023-03-01T07:45:52;26.73;;;18.40;;
11671;SDS011;5892;43.412;24.612;2023-03-01T07:48:20;26.93;;;20.33;;
11671;SDS011;5892;43.412;24.612;2023-03-01T07:50:47;29.53;;;21.10;;
11671;SDS011;5892;43.412;24.612;2023-03-01T07:53:14;30.67;;;23.17;;
11671;SDS011;5892;43.412;24.612;2023-03-01T07:55:43;30.33;;;21.43;;
11671;SDS011;5892;43.412;24.612;2023-03-01T07:58:09;27.03;;;18.50;;
11671;SDS011;5892;43.412;24.612;2023-03-01T08:00:36;28.67;;;21.03;;
11671;SDS011;5892;43.412;24.612;2023-03-01T08:03:03;33.57;;;23.80;;
11671;SDS011;5892;43.412;24.612;2023-03-01T08:05:31;38.17;;;26.90;;
11671;SDS011;5892;43.412;24.612;2023-03-01T08:07:58;33.57;;;23.60;;
11671;SDS011;5892;43.412;24.612;2023-03-01T08:10:25;26.20;;;18.47;;
11671;SDS011;5892;43.412;24.612;2023-03-01T08:12:52;29.47;;;20.97;;
11671;SDS011;5892;43.412;24.612;2023-03-01T08:15:19;26.77;;;18.67;;
11671;SDS011;5892;43.412;24.612;2023-03-01T08:18:00;24.57;;;17.70;;
11671;SDS011;5892;43.412;24.612;2023-03-01T08:20:27;24.83;;;17.63;;
11671;SDS011;5892;43.412;24.612;2023-03-01T08:22:55;28.13;;;19.40;;
11671;SDS011;5892;43.412;24.612;2023-03-01T08:25:24;28.33;;;19.87;;
11671;SDS011;5892;43.412;24.612;2023-03-01T08:27:51;29.30;;;18.80;;
11671;SDS011;5892;43.412;24.612;2023-03-01T08:30:19;28.83;;;19.80;;
11671;SDS011;5892;43.412;24.612;2023-03-01T08:32:49;25.30;;;18.10;;
11671;SDS011;5892;43.412;24.612;2023-03-01T08:35:16;25.80;;;19.23;;
11671;SDS011;5892;43.412;24.612;2023-03-01T08:37:43;37.57;;;25.17;;
11671;SDS011;5892;43.412;24.612;2023-03-01T08:40:12;33.60;;;22.43;;
11671;SDS011;5892;43.412;24.612;2023-03-01T08:42:39;25.47;;;18.40;;
11671;SDS011;5892;43.412;24.612;2023-03-01T08:45:08;23.57;;;17.10;;
11671;SDS011;5892;43.412;24.612;2023-03-01T08:47:36;22.30;;;16.60;;
11671;SDS011;5892;43.412;24.612;2023-03-01T08:50:04;24.27;;;18.07;;
11671;SDS011;5892;43.412;24.612;2023-03-01T08:52:31;27.43;;;17.70;;
11671;SDS011;5892;43.412;24.612;2023-03-01T08:54:59;24.80;;;17.57;;
11671;SDS011;5892;43.412;24.612;2023-03-01T08:57:28;25.87;;;18.80;;
11671;SDS011;5892;43.412;24.612;2023-03-01T08:59:59;24.03;;;17.03;;
11671;SDS011;5892;43.412;24.612;2023-03-01T09:02:25;26.57;;;18.43;;
11671;SDS011;5892;43.412;24.612;2023-03-01T09:04:52;26.20;;;17.30;;
11671;SDS011;5892;43.412;24.612;2023-03-01T09:07:19;25.07;;;17.13;;
11671;SDS011;5892;43.412;24.612;2023-03-01T09:09:46;22.33;;;16.47;;
11671;SDS011;5892;43.412;24.612;2023-03-01T09:12:13;21.90;;;16.37;;
11671;SDS011;5892;43.412;24.612;2023-03-01T09:14:41;24.13;;;16.77;;
11671;SDS011;5892;43.412;24.612;2023-03-01T09:17:08;24.23;;;17.77;;
11671;SDS011;5892;43.412;24.612;2023-03-01T09:19:35;26.50;;;19.00;;
11671;SDS011;5892;43.412;24.612;2023-03-01T09:22:02;26.73;;;18.43;;
11671;SDS011;5892;43.412;24.612;2023-03-01T09:24:35;27.33;;;18.87;;
11671;SDS011;5892;43.412;24.612;2023-03-01T09:27:02;23.73;;;17.97;;
11671;SDS011;5892;43.412;24.612;2023-03-01T09:29:31;29.23;;;20.00;;
11671;SDS011;5892;43.412;24.612;2023-03-01T09:31:59;32.80;;;22.40;;
11671;SDS011;5892;43.412;24.612;2023-03-01T09:34:26;31.53;;;21.73;;
11671;SDS011;5892;43.412;24.612;2023-03-01T09:36:53;36.57;;;25.00;;
11671;SDS011;5892;43.412;24.612;2023-03-01T09:39:20;27.63;;;19.33;;
11671;SDS011;5892;43.412;24.612;2023-03-01T09:41:52;27.83;;;19.73;;
11671;SDS011;5892;43.412;24.612;2023-03-01T09:44:27;27.03;;;18.57;;
11671;SDS011;5892;43.412;24.612;2023-03-01T09:47:00;21.73;;;16.17;;
11671;SDS011;5892;43.412;24.612;2023-03-01T09:49:28;27.80;;;19.97;;
11671;SDS011;5892;43.412;24.612;2023-03-01T09:52:21;26.83;;;19.00;;
11671;SDS011;5892;43.412;24.612;2023-03-01T09:54:54;25.80;;;18.30;;
11671;SDS011;5892;43.412;24.612;2023-03-01T09:57:25;24.80;;;17.67;;
11671;SDS011;5892;43.412;24.612;2023-03-01T10:00:01;47.90;;;32.17;;
11671;SDS011;5892;43.412;24.612;2023-03-01T10:02:44;24.13;;;18.50;;
11671;SDS011;5892;43.412;24.612;2023-03-01T10:05:18;23.80;;;16.57;;
11671;SDS011;5892;43.412;24.612;2023-03-01T10:08:01;35.30;;;25.67;;
11671;SDS011;5892;43.412;24.612;2023-03-01T10:10:38;24.00;;;17.03;;
11671;SDS011;5892;43.412;24.612;2023-03-01T10:13:10;22.60;;;16.80;;
11671;SDS011;5892;43.412;24.612;2023-03-01T10:15:43;27.53;;;19.53;;
11671;SDS011;5892;43.412;24.612;2023-03-01T10:18:16;27.73;;;20.10;;
11671;SDS011;5892;43.412;24.612;2023-03-01T10:20:48;25.60;;;19.97;;
11671;SDS011;5892;43.412;24.612;2023-03-01T10:23:19;24.00;;;18.30;;
11671;SDS011;5892;43.412;24.612;2023-03-01T10:25:53;23.30;;;16.90;;
11671;SDS011;5892;43.412;24.612;2023-03-01T10:28:30;28.77;;;22.10;;
11671;SDS011;5892;43.412;24.612;2023-03-01T10:31:01;32.60;;;22.17;;
11671;SDS011;5892;43.412;24.612;2023-03-01T10:33:31;23.70;;;16.90;;
11671;SDS011;5892;43.412;24.612;2023-03-01T10:36:01;24.07;;;17.37;;
11671;SDS011;5892;43.412;24.612;2023-03-01T10:38:30;22.53;;;16.37;;
11671;SDS011;5892;43.412;24.612;2023-03-01T10:40:58;32.07;;;20.97;;
11671;SDS011;5892;43.412;24.612;2023-03-01T10:43:32;27.93;;;19.60;;
11671;SDS011;5892;43.412;24.612;2023-03-01T10:46:21;25.97;;;18.30;;
11671;SDS011;5892;43.412;24.612;2023-03-01T10:49:01;25.07;;;17.13;;
11671;SDS011;5892;43.412;24.612;2023-03-01T10:51:33;26.97;;;20.33;;
11671;SDS011;5892;43.412;24.612;2023-03-01T10:54:00;24.77;;;18.10;;
11671;SDS011;5892;43.412;24.612;2023-03-01T10:56:29;24.17;;;18.63;;
11671;SDS011;5892;43.412;24.612;2023-03-01T10:59:19;27.83;;;20.87;;
11671;SDS011;5892;43.412;24.612;2023-03-01T11:02:01;24.33;;;16.80;;
11671;SDS011;5892;43.412;24.612;2023-03-01T11:04:32;25.20;;;18.60;;
11671;SDS011;5892;43.412;24.612;2023-03-01T11:06:59;24.37;;;18.30;;
11671;SDS011;5892;43.412;24.612;2023-03-01T11:09:30;22.03;;;17.23;;
11671;SDS011;5892;43.412;24.612;2023-03-01T11:12:03;21.93;;;17.17;;
11671;SDS011;5892;43.412;24.612;2023-03-01T11:14:33;22.47;;;17.20;;
11671;SDS011;5892;43.412;24.612;2023-03-01T11:17:11;22.37;;;16.47;;
11671;SDS011;5892;43.412;24.612;2023-03-01T11:20:00;25.37;;;16.50;;
11671;SDS011;5892;43.412;24.612;2023-03-01T11:22:29;22.13;;;18.07;;
11671;SDS011;5892;43.412;24.612;2023-03-01T11:24:59;21.57;;;17.10;;
11671;SDS011;5892;43.412;24.612;2023-03-01T11:27:28;23.30;;;17.67;;
11671;SDS011;5892;43.412;24.612;2023-03-01T11:29:59;22.47;;;17.00;;
11671;SDS011;5892;43.412;24.612;2023-03-01T11:32:35;22.60;;;17.93;;
11671;SDS011;5892;43.412;24.612;2023-03-01T11:35:10;22.63;;;18.70;;
11671;SDS011;5892;43.412;24.612;2023-03-01T11:37:44;25.47;;;20.30;;
11671;SDS011;5892;43.412;24.612;2023-03-01T11:40:22;19.20;;;15.53;;
11671;SDS011;5892;43.412;24.612;2023-03-01T11:42:55;22.20;;;16.93;;
11671;SDS011;5892;43.412;24.612;2023-03-01T11:45:35;21.93;;;17.07;;
11671;SDS011;5892;43.412;24.612;2023-03-01T11:48:24;21.23;;;15.83;;
11671;SDS011;5892;43.412;24.612;2023-03-01T11:51:15;19.37;;;15.37;;
11671;SDS011;5892;43.412;24.612;2023-03-01T11:53:56;20.47;;;15.60;;
11671;SDS011;5892;43.412;24.612;2023-03-01T11:56:34;19.80;;;15.37;;
11671;SDS011;5892;43.412;24.612;2023-03-01T11:59:09;18.10;;;15.03;;
11671;SDS011;5892;43.412;24.612;2023-03-01T12:01:58;18.07;;;14.80;;
11671;SDS011;5892;43.412;24.612;2023-03-01T12:04:49;20.60;;;16.33;;
11671;SDS011;5892;43.412;24.612;2023-03-01T12:07:27;21.80;;;17.07;;
11671;SDS011;5892;43.412;24.612;2023-03-01T12:10:19;24.80;;;18.37;;
11671;SDS011;5892;43.412;24.612;2023-03-01T12:13:02;19.57;;;15.83;;
11671;SDS011;5892;43.412;24.612;2023-03-01T12:15:54;19.43;;;13.53;;
11671;SDS011;5892;43.412;24.612;2023-03-01T12:18:45;26.07;;;20.10;;
11671;SDS011;5892;43.412;24.612;2023-03-01T12:21:28;20.57;;;15.70;;
11671;SDS011;5892;43.412;24.612;2023-03-01T12:24:10;24.40;;;19.00;;
11671;SDS011;5892;43.412;24.612;2023-03-01T12:26:52;21.17;;;15.40;;
11671;SDS011;5892;43.412;24.612;2023-03-01T12:29:30;18.30;;;14.13;;
11671;SDS011;5892;43.412;24.612;2023-03-01T12:32:10;20.97;;;15.27;;
11671;SDS011;5892;43.412;24.612;2023-03-01T12:34:54;26.50;;;17.77;;
11671;SDS011;5892;43.412;24.612;2023-03-01T12:37:50;17.73;;;13.53;;
11671;SDS011;5892;43.412;24.612;2023-03-01T12:40:34;17.40;;;13.17;;
11671;SDS011;5892;43.412;24.612;2023-03-01T12:43:22;21.60;;;17.17;;
11671;SDS011;5892;43.412;24.612;2023-03-01T12:46:02;21.03;;;15.83;;
11671;SDS011;5892;43.412;24.612;2023-03-01T12:48:40;18.50;;;14.50;;
11671;SDS011;5892;43.412;24.612;2023-03-01T12:51:18;22.13;;;16.70;;
11671;SDS011;5892;43.412;24.612;2023-03-01T12:53:51;20.53;;;14.20;;
11671;SDS011;5892;43.412;24.612;2023-03-01T12:56:23;16.90;;;13.67;;
11671;SDS011;5892;43.412;24.612;2023-03-01T12:58:57;21.13;;;15.27;;
11671;SDS011;5892;43.412;24.612;2023-03-01T13:01:35;18.97;;;15.40;;
11671;SDS011;5892;43.412;24.612;2023-03-01T13:04:19;20.30;;;15.73;;
11671;SDS011;5892;43.412;24.612;2023-03-01T13:06:58;19.33;;;13.90;;
11671;SDS011;5892;43.412;24.612;2023-03-01T13:09:37;19.77;;;14.73;;
11671;SDS011;5892;43.412;24.612;2023-03-01T13:18:27;19.97;;;15.43;;
11671;SDS011;5892;43.412;24.612;2023-03-01T13:20:59;20.07;;;15.87;;
11671;SDS011;5892;43.412;24.612;2023-03-01T13:23:30;19.27;;;15.80;;
11671;SDS011;5892;43.412;24.612;2023-03-01T13:26:02;19.97;;;15.47;;
11671;SDS011;5892;43.412;24.612;2023-03-01T13:28:48;19.57;;;17.00;;
11671;SDS011;5892;43.412;24.612;2023-03-01T13:34:42;20.60;;;16.47;;
11671;SDS011;5892;43.412;24.612;2023-03-01T13:37:18;21.13;;;16.67;;
11671;SDS011;5892;43.412;24.612;2023-03-01T13:39:54;19.77;;;14.77;;
11671;SDS011;5892;43.412;24.612;2023-03-01T13:42:32;19.43;;;14.33;;
11671;SDS011;5892;43.412;24.612;2023-03-01T13:45:20;19.00;;;15.17;;
11671;SDS011;5892;43.412;24.612;2023-03-01T13:47:53;19.33;;;14.53;;
11671;SDS011;5892;43.412;24.612;2023-03-01T13:50:25;20.70;;;14.93;;
11671;SDS011;5892;43.412;24.612;2023-03-01T13:52:56;21.17;;;14.60;;
11671;SDS011;5892;43.412;24.612;2023-03-01T13:55:27;19.30;;;14.00;;
11671;SDS011;5892;43.412;24.612;2023-03-01T13:58:01;20.00;;;14.63;;
11671;SDS011;5892;43.412;24.612;2023-03-01T14:00:34;19.23;;;14.53;;
11671;SDS011;5892;43.412;24.612;2023-03-01T14:03:05;18.63;;;15.23;;
11671;SDS011;5892;43.412;24.612;2023-03-01T14:05:36;26.00;;;19.80;;
11671;SDS011;5892;43.412;24.612;2023-03-01T14:08:04;20.67;;;16.23;;
11671;SDS011;5892;43.412;24.612;2023-03-01T14:10:36;20.80;;;15.43;;
11671;SDS011;5892;43.412;24.612;2023-03-01T14:13:17;19.40;;;16.10;;
11671;SDS011;5892;43.412;24.612;2023-03-01T14:16:03;20.93;;;15.17;;
11671;SDS011;5892;43.412;24.612;2023-03-01T14:18:43;23.10;;;17.37;;
11671;SDS011;5892;43.412;24.612;2023-03-01T14:21:21;21.43;;;16.00;;
11671;SDS011;5892;43.412;24.612;2023-03-01T14:23:50;19.87;;;15.33;;
11671;SDS011;5892;43.412;24.612;2023-03-01T14:26:20;17.50;;;14.03;;
11671;SDS011;5892;43.412;24.612;2023-03-01T14:28:51;19.73;;;15.13;;
11671;SDS011;5892;43.412;24.612;2023-03-01T14:31:34;19.03;;;14.20;;
11671;SDS011;5892;43.412;24.612;2023-03-01T14:34:03;24.40;;;16.07;;
11671;SDS011;5892;43.412;24.612;2023-03-01T14:36:32;32.07;;;20.53;;
11671;SDS011;5892;43.412;24.612;2023-03-01T14:39:00;33.97;;;21.47;;
11671;SDS011;5892;43.412;24.612;2023-03-01T14:41:51;32.77;;;20.60;;
11671;SDS011;5892;43.412;24.612;2023-03-01T14:44:19;25.93;;;17.80;;
11671;SDS011;5892;43.412;24.612;2023-03-01T14:46:53;28.73;;;19.67;;
11671;SDS011;5892;43.412;24.612;2023-03-01T14:49:23;28.43;;;19.00;;
11671;SDS011;5892;43.412;24.612;2023-03-01T14:51:53;26.50;;;17.63;;
11671;SDS011;5892;43.412;24.612;2023-03-01T14:54:24;27.50;;;17.67;;